createdAt,value
2022-08-05T00:00:53.818Z,52.10
2022-08-05T00:03:20.575Z,52.00
2022-08-05T00:06:04.837Z,51.80
2022-08-05T00:08:36.463Z,51.70
2022-08-05T00:11:20.227Z,51.60
2022-08-05T00:13:47.156Z,51.30
2022-08-05T00:16:20.109Z,51.20
2022-08-05T00:19:04.206Z,51.40
2022-08-05T00:21:31.118Z,51.20
2022-08-05T00:24:10.306Z,51.20
2022-08-05T00:26:38.811Z,51.30
2022-08-05T00:29:05.631Z,51.50
2022-08-05T00:31:53.540Z,51.60
2022-08-05T00:34:55.636Z,51.40
2022-08-05T00:37:12.798Z,51.30
2022-08-05T00:39:58.395Z,51.30
2022-08-05T00:42:33.539Z,51.60
2022-08-05T00:45:01.078Z,51.40
2022-08-05T00:47:31.609Z,51.60
2022-08-05T00:50:15.255Z,51.70
2022-08-05T00:52:42.087Z,51.70
2022-08-05T00:55:12.518Z,51.70
2022-08-05T00:57:58.569Z,52.00
2022-08-05T01:00:30.347Z,52.00
2022-08-05T01:02:59.937Z,52.00
2022-08-05T01:05:27.348Z,51.90
2022-08-05T01:08:40.619Z,51.90
2022-08-05T01:10:52.447Z,51.80
2022-08-05T01:13:58.846Z,52.10
2022-08-05T01:16:38.964Z,52.20
2022-08-05T01:20:01.722Z,52.30
2022-08-05T01:22:46.946Z,52.30
2022-08-05T01:25:40.555Z,52.20
2022-08-05T01:28:23.596Z,52.00
2022-08-05T01:31:09.845Z,52.00
2022-08-05T01:33:49.182Z,52.40
2022-08-05T01:36:21.039Z,52.20
2022-08-05T01:38:56.572Z,52.10
2022-08-05T01:41:30.856Z,52.00
2022-08-05T01:44:01.823Z,52.20
2022-08-05T01:46:41.910Z,52.30
2022-08-05T01:49:24.241Z,52.30
2022-08-05T01:51:58.386Z,52.40
2022-08-05T01:54:45.806Z,52.50
2022-08-05T01:58:10.215Z,52.60
2022-08-05T02:00:11.963Z,52.90
2022-08-05T02:02:56.399Z,52.80
2022-08-05T02:05:36.021Z,53.20
2022-08-05T02:08:04.722Z,53.20
2022-08-05T02:10:38.984Z,53.20
2022-08-05T02:13:36.530Z,53.30
2022-08-05T02:16:28.308Z,54.40
2022-08-05T02:19:19.652Z,53.50
2022-08-05T02:21:59.038Z,53.80
2022-08-05T02:24:32.472Z,53.70
2022-08-05T02:27:10.052Z,53.70
2022-08-05T02:29:59.556Z,53.90
2022-08-05T02:32:31.361Z,54.00
2022-08-05T02:35:13.397Z,54.60
2022-08-05T02:37:47.831Z,54.10
2022-08-05T02:40:22.986Z,54.10
2022-08-05T02:42:54.208Z,54.10
2022-08-05T02:45:24.178Z,54.00
2022-08-05T02:48:06.594Z,54.10
2022-08-05T02:50:44.146Z,54.40
2022-08-05T02:53:18.788Z,54.30
2022-08-05T02:55:53.849Z,54.40
2022-08-05T02:58:26.718Z,54.40
2022-08-05T03:00:56.732Z,54.60
2022-08-05T03:03:25.413Z,54.60
2022-08-05T03:06:56.159Z,54.50
2022-08-05T03:08:42.769Z,54.50
2022-08-05T03:11:56.411Z,54.60
2022-08-05T03:14:13.851Z,54.40
2022-08-05T03:16:41.614Z,54.40
2022-08-05T03:19:17.448Z,54.70
2022-08-05T03:21:55.149Z,55.60
2022-08-05T03:24:29.215Z,54.90
2022-08-05T03:26:58.105Z,55.00
2022-08-05T03:29:24.876Z,55.00
2022-08-05T03:32:14.413Z,55.00
2022-08-05T03:34:42.488Z,54.90
2022-08-05T03:37:18.713Z,54.90
2022-08-05T03:40:01.724Z,54.90
2022-08-05T03:42:32.099Z,55.00
2022-08-05T03:44:59.541Z,55.20
2022-08-05T03:47:30.490Z,55.20
2022-08-05T03:50:02.380Z,55.20
2022-08-05T03:52:39.072Z,55.20
2022-08-05T03:56:05.427Z,55.20
2022-08-05T03:58:19.198Z,55.10
2022-08-05T04:00:51.705Z,55.20
2022-08-05T04:03:28.376Z,55.30
2022-08-05T04:05:59.845Z,55.40
2022-08-05T04:08:36.216Z,55.50
2022-08-05T04:11:07.422Z,55.50
2022-08-05T04:13:49.825Z,55.70
2022-08-05T04:16:25.112Z,55.70
2022-08-05T04:19:00.050Z,55.80
2022-08-05T04:22:08.931Z,55.90
2022-08-05T04:24:19.678Z,55.90
2022-08-05T04:26:50.095Z,55.70
2022-08-05T04:29:17.021Z,55.70
2022-08-05T04:31:43.755Z,55.80
2022-08-05T04:34:31.151Z,56.00
2022-08-05T04:36:57.845Z,56.00
2022-08-05T04:39:24.723Z,56.10
2022-08-05T04:41:54.756Z,56.10
2022-08-05T04:44:29.140Z,56.20
2022-08-05T04:46:57.340Z,56.20
2022-08-05T04:49:38.675Z,55.80
2022-08-05T04:52:12.465Z,56.00
2022-08-05T04:54:39.301Z,55.90
2022-08-05T04:57:06.129Z,56.00
2022-08-05T04:59:38.319Z,56.20
2022-08-05T05:02:36.166Z,56.20
2022-08-05T05:05:02.195Z,56.00
2022-08-05T05:07:32.256Z,56.00
2022-08-05T05:10:02.139Z,55.90
2022-08-05T05:12:29.229Z,55.90
2022-08-05T05:14:56.050Z,56.00
2022-08-05T05:17:24.585Z,56.10
2022-08-05T05:19:56.434Z,56.20
2022-08-05T05:22:26.784Z,56.10
2022-08-05T05:25:00.311Z,56.00
2022-08-05T05:27:44.889Z,55.80
2022-08-05T05:30:31.262Z,55.50
2022-08-05T05:33:08.864Z,55.40
2022-08-05T05:35:47.488Z,55.20
2022-08-05T05:38:22.657Z,55.20
2022-08-05T05:40:55.691Z,54.60
2022-08-05T05:43:54.336Z,54.70
2022-08-05T05:46:15.904Z,54.50
2022-08-05T05:48:46.185Z,54.50
2022-08-05T05:51:22.633Z,54.40
2022-08-05T05:53:57.211Z,54.60
2022-08-05T05:56:32.692Z,54.40
2022-08-05T05:59:03.371Z,54.20
2022-08-05T06:01:37.506Z,54.20
2022-08-05T06:04:06.351Z,53.30
2022-08-05T06:06:34.760Z,53.80
2022-08-05T06:09:05.466Z,53.60
2022-08-05T06:11:33.327Z,52.80
2022-08-05T06:14:00.818Z,52.10
2022-08-05T06:16:32.818Z,52.50
2022-08-05T06:19:05.756Z,52.60
2022-08-05T06:21:36.707Z,52.10
2022-08-05T06:24:05.907Z,51.70
2022-08-05T06:26:33.991Z,51.60
2022-08-05T06:29:03.700Z,51.80
2022-08-05T06:31:34.088Z,51.40
2022-08-05T06:34:06.803Z,48.80
2022-08-05T06:36:53.466Z,48.20
2022-08-05T06:39:22.358Z,47.50
2022-08-05T06:41:53.972Z,47.80
2022-08-05T06:44:21.968Z,47.60
2022-08-05T06:46:51.173Z,48.40
2022-08-05T06:49:18.969Z,49.30
2022-08-05T06:51:48.409Z,49.40
2022-08-05T06:54:18.161Z,50.30
2022-08-05T06:56:54.768Z,49.70
2022-08-05T06:59:38.889Z,50.80
2022-08-05T07:02:09.249Z,49.50
2022-08-05T07:04:36.535Z,48.20
2022-08-05T07:07:03.751Z,47.80
2022-08-05T07:09:37.475Z,48.10
2022-08-05T07:12:30.011Z,47.90
2022-08-05T07:15:34.004Z,47.50
2022-08-05T07:18:07.447Z,47.80
2022-08-05T07:20:38.736Z,47.90
2022-08-05T07:23:06.574Z,48.80
2022-08-05T07:25:54.666Z,47.50
2022-08-05T07:28:20.529Z,46.50
2022-08-05T07:30:52.942Z,46.00
2022-08-05T07:33:35.256Z,45.50
2022-08-05T07:36:20.916Z,46.20
2022-08-05T07:38:49.195Z,46.70
2022-08-05T07:42:13.102Z,47.00
2022-08-05T07:44:18.505Z,46.50
2022-08-05T07:46:48.441Z,45.70
2022-08-05T07:49:16.367Z,46.10
2022-08-05T07:51:53.103Z,47.50
2022-08-05T07:54:30.327Z,45.30
2022-08-05T07:57:16.709Z,43.50
2022-08-05T07:59:48.927Z,43.10
2022-08-05T08:02:17.614Z,42.30
2022-08-05T08:04:49.364Z,42.20
2022-08-05T08:07:22.136Z,42.40
2022-08-05T08:09:52.549Z,42.80
2022-08-05T08:12:36.903Z,41.90
2022-08-05T08:15:15.648Z,40.80
2022-08-05T08:17:52.673Z,41.40
2022-08-05T08:21:01.031Z,40.80
2022-08-05T08:24:03.873Z,39.80
2022-08-05T08:26:00.741Z,40.20
2022-08-05T08:28:36.610Z,38.30
2022-08-05T08:31:06.789Z,37.80
2022-08-05T08:33:35.915Z,37.90
2022-08-05T08:36:38.938Z,38.60
2022-08-05T08:38:55.977Z,39.00
2022-08-05T08:41:51.914Z,38.00
2022-08-05T08:45:24.264Z,37.50
2022-08-05T08:47:47.437Z,37.10
2022-08-05T08:50:23.196Z,35.90
2022-08-05T08:52:47.428Z,35.70
2022-08-05T08:55:32.134Z,34.70
2022-08-05T08:58:06.780Z,35.10
2022-08-05T09:00:36.051Z,35.10
2022-08-05T09:03:06.474Z,36.00
2022-08-05T09:05:38.606Z,36.40
2022-08-05T09:08:27.414Z,36.20
2022-08-05T09:10:57.475Z,34.30
2022-08-05T09:13:24.747Z,33.90
2022-08-05T09:15:58.377Z,34.30
2022-08-05T09:18:25.828Z,34.00
2022-08-05T09:20:52.648Z,34.00
2022-08-05T09:23:23.524Z,34.50
2022-08-05T09:26:08.530Z,34.60
2022-08-05T09:28:38.603Z,34.30
2022-08-05T09:31:22.120Z,34.50
2022-08-05T09:33:58.688Z,35.70
2022-08-05T09:36:55.228Z,35.00
2022-08-05T09:39:41.485Z,34.20
2022-08-05T09:42:23.709Z,33.80
2022-08-05T09:44:56.565Z,33.50
2022-08-05T09:47:49.063Z,33.10
2022-08-05T09:50:18.237Z,33.40
2022-08-05T09:53:01.308Z,31.20
2022-08-05T09:55:56.992Z,32.50
2022-08-05T09:58:22.925Z,33.00
2022-08-05T10:01:13.352Z,32.10
2022-08-05T10:04:00.305Z,32.50
2022-08-05T10:06:28.189Z,33.70
2022-08-05T10:08:55.869Z,31.10
2022-08-05T10:11:23.414Z,30.70
2022-08-05T10:13:54.590Z,29.70
2022-08-05T10:16:34.185Z,28.90
2022-08-05T10:19:09.434Z,29.00
2022-08-05T10:21:40.297Z,28.90
2022-08-05T10:24:13.630Z,29.80
2022-08-05T10:26:51.337Z,30.00
2022-08-05T10:30:42.021Z,30.20
2022-08-05T10:32:53.354Z,30.00
2022-08-05T10:35:01.407Z,31.00
2022-08-05T10:37:40.193Z,30.70
2022-08-05T10:40:34.971Z,29.80
2022-08-05T10:43:23.253Z,29.70
2022-08-05T10:46:06.172Z,29.90
2022-08-05T10:48:52.320Z,27.70
2022-08-05T10:51:29.107Z,28.00
2022-08-05T10:53:58.515Z,28.70
2022-08-05T10:56:43.539Z,29.20
2022-08-05T11:00:01.850Z,28.70
2022-08-05T11:02:14.420Z,29.00
2022-08-05T11:04:56.021Z,28.80
2022-08-05T11:07:32.974Z,28.20
2022-08-05T11:10:27.772Z,28.00
2022-08-05T11:12:57.829Z,27.60
2022-08-05T11:16:00.026Z,27.40
2022-08-05T11:18:30.016Z,27.40
2022-08-05T11:20:57.367Z,27.00
2022-08-05T11:24:04.140Z,26.50
2022-08-05T11:26:28.189Z,28.10
2022-08-05T11:29:13.498Z,24.80
2022-08-05T11:31:57.538Z,22.80
2022-08-05T11:34:50.831Z,22.90
2022-08-05T11:38:29.840Z,20.10
2022-08-05T11:41:34.546Z,22.70
2022-08-05T11:44:07.032Z,21.60
2022-08-05T11:47:09.579Z,23.10
2022-08-05T11:49:27.854Z,23.30
2022-08-05T11:51:55.118Z,24.90
2022-08-05T11:54:33.795Z,25.20
2022-08-05T11:57:08.234Z,26.80
2022-08-05T11:59:49.639Z,27.40
2022-08-05T12:02:23.872Z,27.30
2022-08-05T12:04:59.876Z,26.90
2022-08-05T12:08:09.012Z,27.50
2022-08-05T12:10:22.865Z,27.40
2022-08-05T12:12:59.457Z,26.30
2022-08-05T12:15:37.999Z,26.20
2022-08-05T12:18:11.073Z,24.10
2022-08-05T12:20:39.468Z,23.10
2022-08-05T12:23:09.928Z,22.10
2022-08-05T12:25:56.634Z,20.10
2022-08-05T12:28:35.328Z,17.80
2022-08-05T12:31:04.880Z,16.70
2022-08-05T12:33:36.749Z,16.50
2022-08-05T12:36:09.556Z,18.80
2022-08-05T12:38:41.404Z,18.90
2022-08-05T12:41:16.135Z,20.80
2022-08-05T12:43:57.877Z,23.00
2022-08-05T12:46:32.486Z,23.40
2022-08-05T12:49:13.464Z,24.50
2022-08-05T12:52:13.717Z,24.30
2022-08-05T12:54:35.737Z,25.10
2022-08-05T12:57:09.745Z,26.40
2022-08-05T13:01:58.235Z,27.40
2022-08-05T13:02:36.519Z,26.10
2022-08-05T13:05:06.616Z,25.30
2022-08-05T13:07:59.448Z,24.50
2022-08-05T13:10:20.603Z,25.70
2022-08-05T13:12:51.187Z,26.50
2022-08-05T13:15:41.129Z,25.20
2022-08-05T13:18:19.433Z,24.40
2022-08-05T13:20:49.331Z,23.70
2022-08-05T13:23:18.281Z,21.30
2022-08-05T13:25:52.837Z,21.90
2022-08-05T13:28:27.617Z,22.20
2022-08-05T13:30:54.333Z,23.50
2022-08-05T13:34:21.231Z,25.20
2022-08-05T13:36:09.133Z,23.90
2022-08-05T13:38:41.980Z,21.90
2022-08-05T13:41:11.351Z,22.80
2022-08-05T13:43:45.512Z,24.50
2022-08-05T13:46:50.985Z,24.90
2022-08-05T13:49:12.557Z,26.00
2022-08-05T13:51:45.726Z,27.00
2022-08-05T13:54:15.487Z,28.20
2022-08-05T13:56:45.423Z,27.50
2022-08-05T13:59:23.807Z,26.70
2022-08-05T14:01:58.016Z,27.30
2022-08-05T14:04:49.769Z,26.80
2022-08-05T14:07:55.387Z,25.20
2022-08-05T14:10:08.699Z,24.90
2022-08-05T14:12:36.548Z,23.90
2022-08-05T14:15:06.031Z,23.90
2022-08-05T14:17:51.582Z,23.20
2022-08-05T14:20:21.961Z,22.30
2022-08-05T14:22:54.714Z,22.50
2022-08-05T14:25:28.155Z,21.60
2022-08-05T14:27:55.923Z,22.40
2022-08-05T14:30:22.981Z,22.70
2022-08-05T14:32:53.343Z,23.70
2022-08-05T14:35:20.855Z,23.70
2022-08-05T14:37:53.547Z,25.00
2022-08-05T14:40:24.400Z,24.40
2022-08-05T14:42:52.013Z,25.20
2022-08-05T14:45:18.911Z,25.70
2022-08-05T14:48:03.574Z,25.70
2022-08-05T14:50:33.278Z,26.10
2022-08-05T14:53:06.815Z,27.60
2022-08-05T14:55:39.183Z,28.20
2022-08-05T14:58:12.032Z,28.30
2022-08-05T15:00:58.857Z,27.40
2022-08-05T15:03:33.089Z,28.40
2022-08-05T15:06:13.254Z,29.20
2022-08-05T15:09:01.294Z,29.00
2022-08-05T15:11:51.939Z,29.60
2022-08-05T15:14:34.457Z,29.20
2022-08-05T15:17:04.986Z,29.10
2022-08-05T15:19:33.330Z,28.90
2022-08-05T15:22:01.170Z,29.00
2022-08-05T15:24:29.068Z,29.60
2022-08-05T15:26:57.058Z,30.40
2022-08-05T15:29:30.239Z,30.90
2022-08-05T15:32:03.022Z,31.20
2022-08-05T15:34:33.075Z,31.30
2022-08-05T15:37:04.809Z,32.10
2022-08-05T15:41:00.646Z,31.10
2022-08-05T15:42:50.444Z,30.70
2022-08-05T15:45:09.873Z,30.40
2022-08-05T15:47:41.124Z,30.30
2022-08-05T15:50:09.349Z,30.20
2022-08-05T15:52:53.108Z,30.60
2022-08-05T15:55:25.186Z,30.70
2022-08-05T15:58:08.093Z,31.90
2022-08-05T16:00:50.661Z,31.30
2022-08-05T16:03:21.936Z,31.30
2022-08-05T16:05:52.611Z,30.00
2022-08-05T16:08:22.469Z,30.40
2022-08-05T16:10:50.781Z,30.00
2022-08-05T16:13:23.287Z,29.90
2022-08-05T16:15:51.892Z,30.20
2022-08-05T16:18:19.041Z,30.40
2022-08-05T16:20:46.573Z,30.20
2022-08-05T16:23:13.304Z,30.10
2022-08-05T16:25:40.206Z,30.00
2022-08-05T16:28:09.704Z,30.30
2022-08-05T16:30:37.386Z,30.90
2022-08-05T16:33:04.480Z,31.10
2022-08-05T16:35:33.788Z,31.10
2022-08-05T16:38:24.005Z,31.70
2022-08-05T16:41:00.335Z,31.10
2022-08-05T16:43:33.380Z,30.30
2022-08-05T16:46:05.783Z,31.60
2022-08-05T16:48:39.509Z,31.60
2022-08-05T16:51:09.041Z,31.20
2022-08-05T16:54:05.124Z,31.50
2022-08-05T16:56:30.677Z,31.10
2022-08-05T16:58:58.347Z,30.50
2022-08-05T17:01:25.673Z,30.30
2022-08-05T17:03:52.991Z,29.90
2022-08-05T17:06:20.411Z,30.20
2022-08-05T17:08:52.928Z,30.70
2022-08-05T17:11:23.340Z,30.00
2022-08-05T17:14:00.144Z,30.90
2022-08-05T17:16:37.676Z,30.00
2022-08-05T17:19:07.679Z,30.50
2022-08-05T17:21:37.156Z,30.00
2022-08-05T17:24:30.248Z,30.00
2022-08-05T17:26:56.630Z,29.70
2022-08-05T17:29:33.731Z,30.30
2022-08-05T17:32:11.758Z,30.70
2022-08-05T17:34:44.284Z,30.10
2022-08-05T17:37:27.238Z,30.60
2022-08-05T17:40:00.240Z,31.00
2022-08-05T17:42:32.148Z,31.50
2022-08-05T17:45:17.849Z,31.60
2022-08-05T17:47:52.989Z,32.30
2022-08-05T17:50:28.060Z,32.50
2022-08-05T17:53:00.643Z,33.10
2022-08-05T17:55:37.791Z,33.60
2022-08-05T17:58:12.540Z,33.30
2022-08-05T18:00:47.818Z,33.50
2022-08-05T18:03:59.331Z,32.90
2022-08-05T18:06:12.142Z,33.30
2022-08-05T18:08:44.586Z,33.80
2022-08-05T18:11:24.084Z,33.80
2022-08-05T18:14:04.240Z,34.20
2022-08-05T18:16:32.660Z,33.80
2022-08-05T18:18:59.427Z,33.80
2022-08-05T18:22:07.321Z,34.00
2022-08-05T18:24:14.472Z,34.50
2022-08-05T18:26:41.330Z,35.00
2022-08-05T18:29:10.575Z,35.50
2022-08-05T18:31:37.414Z,35.90
2022-08-05T18:34:12.165Z,35.60
2022-08-05T18:36:40.012Z,35.90
2022-08-05T18:39:22.406Z,36.20
2022-08-05T18:42:04.595Z,36.40
2022-08-05T18:44:35.554Z,36.40
2022-08-05T18:47:16.333Z,36.40
2022-08-05T18:50:01.763Z,36.00
2022-08-05T18:52:32.938Z,35.70
2022-08-05T18:55:00.827Z,35.90
2022-08-05T18:57:27.558Z,35.70
2022-08-05T19:00:20.015Z,35.80
2022-08-05T19:02:47.818Z,35.50
2022-08-05T19:06:11.821Z,35.40
2022-08-05T19:08:02.749Z,35.50
2022-08-05T19:10:30.514Z,36.20
2022-08-05T19:12:57.741Z,36.10
2022-08-05T19:15:59.842Z,36.20
2022-08-05T19:18:20.736Z,36.40
2022-08-05T19:20:53.918Z,37.00
2022-08-05T19:24:05.771Z,36.70
2022-08-05T19:26:09.292Z,36.70
2022-08-05T19:28:41.796Z,36.80
2022-08-05T19:31:13.595Z,37.10
2022-08-05T19:33:47.916Z,37.90
2022-08-05T19:36:22.874Z,37.80
2022-08-05T19:38:49.613Z,37.70
2022-08-05T19:41:16.368Z,37.80
2022-08-05T19:44:05.402Z,38.00
2022-08-05T19:46:30.994Z,37.90
2022-08-05T19:49:03.479Z,37.50
2022-08-05T19:52:06.037Z,37.40
2022-08-05T19:54:29.427Z,37.50
2022-08-05T19:56:59.540Z,37.70
2022-08-05T19:59:55.552Z,38.30
2022-08-05T20:02:14.740Z,38.50
2022-08-05T20:04:46.101Z,38.50
2022-08-05T20:07:14.260Z,39.20
2022-08-05T20:09:53.669Z,39.00
2022-08-05T20:12:23.526Z,39.10
2022-08-05T20:14:52.310Z,39.80
2022-08-05T20:17:23.464Z,40.00
2022-08-05T20:19:56.995Z,40.50
2022-08-05T20:22:27.022Z,40.20
2022-08-05T20:24:55.383Z,40.40
2022-08-05T20:27:26.401Z,40.60
2022-08-05T20:29:57.586Z,39.70
2022-08-05T20:32:25.321Z,39.90
2022-08-05T20:34:52.147Z,40.30
2022-08-05T20:38:05.010Z,40.70
2022-08-05T20:40:07.445Z,40.90
2022-08-05T20:42:34.812Z,41.20
2022-08-05T20:45:03.008Z,41.20
2022-08-05T20:47:31.628Z,41.70
2022-08-05T20:49:58.706Z,42.30
2022-08-05T20:52:26.252Z,42.20
2022-08-05T20:55:55.247Z,42.50
2022-08-05T20:57:43.069Z,43.00
2022-08-05T21:00:41.479Z,42.90
2022-08-05T21:03:04.586Z,42.80
2022-08-05T21:05:47.917Z,42.40
2022-08-05T21:08:26.663Z,43.20
2022-08-05T21:11:00.017Z,42.70
2022-08-05T21:13:48.292Z,42.70
2022-08-05T21:16:19.276Z,43.10
2022-08-05T21:18:46.124Z,43.10
2022-08-05T21:21:12.997Z,43.00
2022-08-05T21:23:39.774Z,43.30
2022-08-05T21:26:12.607Z,43.80
2022-08-05T21:28:50.911Z,43.90
2022-08-05T21:31:18.567Z,44.10
2022-08-05T21:33:47.778Z,43.70
2022-08-05T21:36:27.475Z,43.50
2022-08-05T21:38:56.720Z,43.80
2022-08-05T21:41:23.602Z,44.70
2022-08-05T21:43:50.949Z,45.30
2022-08-05T21:46:30.520Z,45.60
2022-08-05T21:48:59.974Z,45.00
2022-08-05T21:52:21.709Z,45.00
2022-08-05T21:54:13.711Z,44.90
2022-08-05T21:56:44.655Z,45.00
2022-08-05T21:59:23.866Z,44.70
2022-08-05T22:01:54.424Z,44.80
2022-08-05T22:04:25.250Z,44.60
2022-08-05T22:06:52.792Z,44.60
2022-08-05T22:09:20.950Z,44.60
2022-08-05T22:11:49.387Z,44.80
2022-08-05T22:14:33.561Z,45.10
2022-08-05T22:17:04.876Z,44.90
2022-08-05T22:20:01.004Z,45.90
2022-08-05T22:22:26.627Z,45.40
2022-08-05T22:25:18.250Z,45.60
2022-08-05T22:28:10.877Z,45.80
2022-08-05T22:30:44.057Z,45.30
2022-08-05T22:33:57.519Z,45.30
2022-08-05T22:36:15.188Z,45.30
2022-08-05T22:38:43.992Z,45.60
2022-08-05T22:42:05.071Z,46.00
2022-08-05T22:44:08.036Z,46.10
2022-08-05T22:46:39.834Z,46.30
2022-08-05T22:49:12.432Z,46.30
2022-08-05T22:52:06.991Z,46.50
2022-08-05T22:54:36.215Z,46.70
2022-08-05T22:57:04.835Z,46.80
2022-08-05T22:59:43.941Z,46.80
2022-08-05T23:02:16.812Z,46.70
2022-08-05T23:04:51.145Z,46.70
2022-08-05T23:07:18.400Z,46.50
2022-08-05T23:09:53.377Z,46.60
2022-08-05T23:12:32.595Z,46.80
2022-08-05T23:15:03.581Z,46.80
2022-08-05T23:17:34.158Z,46.80
2022-08-05T23:20:15.553Z,47.20
2022-08-05T23:22:47.360Z,47.40
2022-08-05T23:25:51.179Z,47.30
2022-08-05T23:28:07.104Z,47.40
2022-08-05T23:30:40.569Z,47.20
2022-08-05T23:33:16.418Z,47.30
2022-08-05T23:35:55.840Z,47.50
2022-08-05T23:38:25.834Z,47.80
2022-08-05T23:40:53.083Z,47.90
2022-08-05T23:43:25.667Z,48.10
2022-08-05T23:46:05.275Z,48.00
2022-08-05T23:49:00.277Z,48.10
2022-08-05T23:51:53.523Z,48.20
2022-08-05T23:54:29.951Z,48.20
2022-08-05T23:57:03.849Z,48.40
